createdAt,value
2018-08-03T00:00:40.953Z,98509.90
2018-08-03T00:03:09.761Z,98511.06
2018-08-03T00:05:39.236Z,98514.70
2018-08-03T00:08:08.139Z,98508.84
2018-08-03T00:10:36.846Z,98507.52
2018-08-03T00:13:05.422Z,98507.97
2018-08-03T00:15:35.279Z,98505.92
2018-08-03T00:18:03.942Z,98504.91
2018-08-03T00:20:32.587Z,98501.80
2018-08-03T00:23:01.246Z,98497.80
2018-08-03T00:25:30.581Z,98498.48
2018-08-03T00:27:59.220Z,98491.54
2018-08-03T00:30:27.949Z,98491.66
2018-08-03T00:32:57.234Z,98496.62
2018-08-03T00:35:25.871Z,98488.99
2018-08-03T00:37:55.164Z,98493.02
2018-08-03T00:40:23.890Z,98488.45
2018-08-03T00:42:52.544Z,98488.81
2018-08-03T00:45:21.601Z,98488.34
2018-08-03T00:47:50.349Z,98483.53
2018-08-03T00:50:19.085Z,98483.69
2018-08-03T00:52:47.727Z,98483.13
2018-08-03T00:55:16.306Z,98483.27
2018-08-03T00:57:45.820Z,98492.64
2018-08-03T01:00:14.425Z,98490.22
2018-08-03T01:02:43.220Z,98496.97
2018-08-03T01:05:11.784Z,98495.14
2018-08-03T01:07:40.450Z,98494.22
2018-08-03T01:10:09.965Z,98491.80
2018-08-03T01:12:39.287Z,98487.39
2018-08-03T01:15:08.639Z,98489.59
2018-08-03T01:17:37.277Z,98487.30
2018-08-03T01:20:06.512Z,98490.96
2018-08-03T01:22:35.137Z,98484.55
2018-08-03T01:25:03.811Z,98490.66
2018-08-03T01:27:32.580Z,98485.40
2018-08-03T01:30:01.269Z,98488.59
2018-08-03T01:32:30.012Z,98492.23
2018-08-03T01:34:58.757Z,98490.30
2018-08-03T01:37:27.507Z,98489.49
2018-08-03T01:39:56.151Z,98489.75
2018-08-03T01:42:24.951Z,98490.89
2018-08-03T01:44:54.487Z,98494.88
2018-08-03T01:47:23.105Z,98495.42
2018-08-03T01:49:51.690Z,98493.61
2018-08-03T01:52:20.526Z,98491.08
2018-08-03T01:54:49.202Z,98490.77
2018-08-03T01:57:18.678Z,98484.86
2018-08-03T01:59:47.294Z,98487.70
2018-08-03T02:02:16.787Z,98489.41
2018-08-03T02:04:45.495Z,98484.28
2018-08-03T02:07:14.272Z,98492.83
2018-08-03T02:09:42.962Z,98489.77
2018-08-03T02:12:11.785Z,98489.41
2018-08-03T02:14:40.547Z,98490.67
2018-08-03T02:17:09.264Z,98489.75
2018-08-03T02:19:38.696Z,98489.52
2018-08-03T02:22:07.380Z,98483.57
2018-08-03T02:24:36.861Z,98484.98
2018-08-03T02:27:05.530Z,98479.72
2018-08-03T02:29:34.166Z,98480.08
2018-08-03T02:32:02.787Z,98483.94
2018-08-03T02:34:31.471Z,98473.89
2018-08-03T02:37:00.105Z,98470.37
2018-08-03T02:39:29.502Z,98471.86
2018-08-03T02:41:58.485Z,98465.81
2018-08-03T02:44:27.373Z,98466.27
2018-08-03T02:46:57.639Z,98472.98
2018-08-03T02:49:27.132Z,98468.09
2018-08-03T02:51:56.060Z,98470.95
2018-08-03T02:54:24.656Z,98472.66
2018-08-03T02:56:53.250Z,98474.03
2018-08-03T02:59:22.043Z,98477.57
2018-08-03T03:01:50.740Z,98475.50
2018-08-03T03:04:19.417Z,98481.78
2018-08-03T03:06:48.022Z,98480.88
2018-08-03T03:09:16.597Z,98482.59
2018-08-03T03:11:45.227Z,98477.68
2018-08-03T03:14:13.921Z,98477.89
2018-08-03T03:16:42.710Z,98479.86
2018-08-03T03:19:11.360Z,98484.85
2018-08-03T03:21:40.211Z,98479.34
2018-08-03T03:24:08.867Z,98480.01
2018-08-03T03:26:37.550Z,98478.08
2018-08-03T03:29:06.195Z,98474.53
2018-08-03T03:31:35.126Z,98469.86
2018-08-03T03:34:03.847Z,98471.80
2018-08-03T03:36:32.592Z,98477.97
2018-08-03T03:39:01.946Z,98476.70
2018-08-03T03:41:30.498Z,98478.43
2018-08-03T03:43:59.265Z,98476.04
2018-08-03T03:46:27.946Z,98473.51
2018-08-03T03:48:56.702Z,98479.27
2018-08-03T03:51:26.033Z,98480.63
2018-08-03T03:53:54.787Z,98485.77
2018-08-03T03:56:23.473Z,98483.83
2018-08-03T03:58:52.272Z,98482.91
2018-08-03T04:01:20.923Z,98482.56
2018-08-03T04:03:49.620Z,98491.59
2018-08-03T04:06:18.319Z,98490.89
2018-08-03T04:08:46.952Z,98496.61
2018-08-03T04:11:15.743Z,98496.58
2018-08-03T04:13:44.441Z,98499.43
2018-08-03T04:16:13.280Z,98494.51
2018-08-03T04:18:41.931Z,98491.10
2018-08-03T04:21:10.697Z,98487.70
2018-08-03T04:23:39.477Z,98488.64
2018-08-03T04:26:08.572Z,98495.95
2018-08-03T04:28:37.182Z,98496.75
2018-08-03T04:31:06.673Z,98492.98
2018-08-03T04:33:35.906Z,98491.94
2018-08-03T04:36:04.556Z,98490.33
2018-08-03T04:38:33.392Z,98495.13
2018-08-03T04:41:02.117Z,98498.81
2018-08-03T04:43:30.773Z,98497.88
2018-08-03T04:45:59.502Z,98497.65
2018-08-03T04:48:28.308Z,98496.84
2018-08-03T04:50:56.997Z,98501.19
2018-08-03T04:53:25.736Z,98508.69
2018-08-03T04:55:54.576Z,98512.59
2018-08-03T04:58:23.257Z,98519.80
2018-08-03T05:00:52.498Z,98521.69
2018-08-03T05:03:22.250Z,98522.00
2018-08-03T05:05:50.936Z,98525.52
2018-08-03T05:08:19.596Z,98521.46
2018-08-03T05:10:48.271Z,98522.59
2018-08-03T05:13:16.840Z,98520.78
2018-08-03T05:15:45.588Z,98523.11
2018-08-03T05:18:14.202Z,98521.63
2018-08-03T05:20:42.795Z,98521.31
2018-08-03T05:23:11.593Z,98517.94
2018-08-03T05:25:40.183Z,98519.01
2018-08-03T05:28:08.875Z,98520.94
2018-08-03T05:30:37.565Z,98523.39
2018-08-03T05:33:06.198Z,98526.24
2018-08-03T05:35:34.853Z,98527.72
2018-08-03T05:38:03.566Z,98522.02
2018-08-03T05:40:32.132Z,98527.83
2018-08-03T05:43:01.729Z,98530.25
2018-08-03T05:45:30.925Z,98528.61
2018-08-03T05:47:59.573Z,98533.88
2018-08-03T05:50:29.033Z,98532.14
2018-08-03T05:52:57.652Z,98534.47
2018-08-03T05:55:26.378Z,98535.18
2018-08-03T05:57:55.055Z,98533.94
2018-08-03T06:00:23.724Z,98538.16
2018-08-03T06:02:52.363Z,98535.61
2018-08-03T06:05:21.701Z,98533.05
2018-08-03T06:07:50.757Z,98533.19
2018-08-03T06:10:20.206Z,98530.86
2018-08-03T06:12:48.795Z,98529.10
2018-08-03T06:15:17.488Z,98526.70
2018-08-03T06:17:46.161Z,98531.22
2018-08-03T06:20:14.929Z,98524.63
2018-08-03T06:22:43.556Z,98520.83
2018-08-03T06:25:12.367Z,98527.14
2018-08-03T06:27:40.937Z,98530.63
2018-08-03T06:30:11.928Z,98526.21
2018-08-03T06:32:41.163Z,98531.43
2018-08-03T06:35:09.772Z,98522.84
2018-08-03T06:37:38.407Z,98533.33
2018-08-03T06:40:07.976Z,98524.91
2018-08-03T06:42:36.668Z,98526.11
2018-08-03T06:45:05.678Z,98534.03
2018-08-03T06:47:34.341Z,98534.84
2018-08-03T06:50:02.918Z,98530.02
2018-08-03T06:52:31.583Z,98535.18
2018-08-03T06:55:00.259Z,98535.35
2018-08-03T06:57:28.988Z,98536.41
2018-08-03T06:59:58.368Z,98541.78
2018-08-03T07:02:27.004Z,98536.19
2018-08-03T07:04:55.650Z,98541.08
2018-08-03T07:07:24.286Z,98545.48
2018-08-03T07:09:53.053Z,98541.12
2018-08-03T07:12:21.803Z,98539.28
2018-08-03T07:14:51.275Z,98542.03
2018-08-03T07:17:20.002Z,98544.86
2018-08-03T07:19:48.708Z,98536.98
2018-08-03T07:22:17.427Z,98536.59
2018-08-03T07:24:46.035Z,98530.42
2018-08-03T07:27:15.274Z,98533.72
2018-08-03T07:29:44.044Z,98533.56
2018-08-03T07:32:12.722Z,98534.14
2018-08-03T07:34:41.337Z,98535.34
2018-08-03T07:37:10.053Z,98533.08
2018-08-03T07:39:38.841Z,98533.68
2018-08-03T07:42:07.532Z,98535.83
2018-08-03T07:44:36.216Z,98535.97
2018-08-03T07:47:04.977Z,98532.34
2018-08-03T07:49:34.573Z,98530.88
2018-08-03T07:52:03.432Z,98528.97
2018-08-03T07:54:32.877Z,98530.69
2018-08-03T07:57:01.542Z,98530.34
2018-08-03T07:59:30.187Z,98531.37
2018-08-03T08:01:58.940Z,98530.11
2018-08-03T08:04:28.192Z,98531.82
2018-08-03T08:06:56.843Z,98520.25
2018-08-03T08:09:25.689Z,98526.88
2018-08-03T08:11:54.296Z,98526.86
2018-08-03T08:14:23.762Z,98520.61
2018-08-03T08:16:52.414Z,98518.48
2018-08-03T08:19:21.037Z,98517.00
2018-08-03T08:21:49.765Z,98519.33
2018-08-03T08:24:18.423Z,98513.49
2018-08-03T08:26:47.112Z,98514.52
2018-08-03T08:29:15.897Z,98514.34
2018-08-03T08:31:45.218Z,98506.45
2018-08-03T08:34:14.008Z,98503.81
2018-08-03T08:36:43.589Z,98501.05
2018-08-03T08:39:13.683Z,98504.12
2018-08-03T08:41:43.471Z,98500.62
2018-08-03T08:44:13.204Z,98499.50
2018-08-03T08:46:42.409Z,98495.23
2018-08-03T08:49:11.732Z,98495.55
2018-08-03T08:51:40.308Z,98492.17
2018-08-03T08:54:09.085Z,98491.28
2018-08-03T08:56:37.884Z,98493.08
2018-08-03T08:59:06.531Z,98503.09
2018-08-03T09:01:35.398Z,98501.23
2018-08-03T09:04:04.068Z,98503.73
2018-08-03T09:06:32.680Z,98497.44
2018-08-03T09:09:01.483Z,98494.96
2018-08-03T09:11:30.219Z,98498.55
2018-08-03T09:13:58.919Z,98488.08
2018-08-03T09:16:27.644Z,98493.06
2018-08-03T09:18:56.385Z,98488.94
2018-08-03T09:21:25.121Z,98479.31
2018-08-03T09:23:53.816Z,98480.50
2018-08-03T09:26:22.480Z,98483.30
2018-08-03T09:28:52.609Z,98477.37
2018-08-03T09:31:21.653Z,98473.50
2018-08-03T09:33:51.079Z,98473.12
2018-08-03T09:36:19.904Z,98467.17
2018-08-03T09:38:49.265Z,98461.11
2018-08-03T09:41:17.990Z,98464.48
2018-08-03T09:43:46.715Z,98458.89
2018-08-03T09:46:15.386Z,98454.17
2018-08-03T09:48:44.179Z,98453.80
2018-08-03T09:51:13.350Z,98454.98
2018-08-03T09:53:41.961Z,98446.83
2018-08-03T09:56:10.543Z,98443.70
2018-08-03T09:58:40.063Z,98446.77
2018-08-03T10:01:11.666Z,98441.05
2018-08-03T10:03:41.340Z,98442.73
2018-08-03T10:06:10.719Z,98440.17
2018-08-03T10:08:39.396Z,98423.91
2018-08-03T10:11:08.613Z,98437.63
2018-08-03T10:13:37.404Z,98431.28
2018-08-03T10:16:06.884Z,98430.41
2018-08-03T10:18:36.500Z,98425.70
2018-08-03T10:21:05.190Z,98423.51
2018-08-03T10:23:33.898Z,98421.51
2018-08-03T10:26:02.524Z,98421.56
2018-08-03T10:28:31.244Z,98424.78
2018-08-03T10:30:59.954Z,98418.55
2018-08-03T10:33:28.633Z,98413.92
2018-08-03T10:35:57.428Z,98418.56
2018-08-03T10:38:26.778Z,98409.34
2018-08-03T10:40:55.479Z,98408.69
2018-08-03T10:43:25.003Z,98413.25
2018-08-03T10:45:54.514Z,98410.34
2018-08-03T10:48:23.134Z,98409.03
2018-08-03T10:50:51.829Z,98411.97
2018-08-03T10:53:20.585Z,98406.02
2018-08-03T10:55:49.292Z,98402.28
2018-08-03T10:58:17.914Z,98409.08
2018-08-03T11:00:46.783Z,98396.09
2018-08-03T11:03:16.180Z,98396.32
2018-08-03T11:05:44.860Z,98391.28
2018-08-03T11:08:13.500Z,98391.86
2018-08-03T11:10:42.215Z,98387.45
2018-08-03T11:13:10.873Z,98385.24
2018-08-03T11:15:40.230Z,98376.38
2018-08-03T11:18:08.915Z,98376.41
2018-08-03T11:20:37.613Z,98368.33
2018-08-03T11:23:06.320Z,98365.78
2018-08-03T11:25:35.041Z,98368.56
2018-08-03T11:28:04.304Z,98363.25
2018-08-03T11:30:42.199Z,98368.32
2018-08-03T11:33:10.899Z,98357.50
2018-08-03T11:35:39.723Z,98353.30
2018-08-03T11:38:08.354Z,98356.81
2018-08-03T11:40:37.184Z,98357.38
2018-08-03T11:43:05.751Z,98349.77
2018-08-03T11:45:34.618Z,98339.03
2018-08-03T11:48:03.355Z,98347.14
2018-08-03T11:50:32.127Z,98341.12
2018-08-03T11:53:00.977Z,98337.83
2018-08-03T11:55:29.945Z,98331.80
2018-08-03T11:58:00.101Z,98327.25
2018-08-03T12:00:29.014Z,98324.87
2018-08-03T12:02:58.184Z,98330.98
2018-08-03T12:05:26.871Z,98323.96
2018-08-03T12:07:55.610Z,98320.30
2018-08-03T12:10:24.195Z,98323.83
2018-08-03T12:12:52.816Z,98316.71
2018-08-03T12:15:21.478Z,98306.86
2018-08-03T12:17:50.335Z,98310.44
2018-08-03T12:20:18.958Z,98306.84
2018-08-03T12:22:48.236Z,98303.43
2018-08-03T12:25:16.801Z,98303.27
2018-08-03T12:27:45.556Z,98299.20
2018-08-03T12:30:14.780Z,98300.34
2018-08-03T12:32:43.483Z,98299.98
2018-08-03T12:35:12.159Z,98301.77
2018-08-03T12:37:40.749Z,98300.44
2018-08-03T12:40:09.460Z,98293.84
2018-08-03T12:42:39.067Z,98288.52
2018-08-03T12:45:07.890Z,98279.11
2018-08-03T12:47:36.514Z,98282.86
2018-08-03T12:50:05.184Z,98283.72
2018-08-03T12:52:33.908Z,98282.73
2018-08-03T12:55:02.580Z,98279.20
2018-08-03T12:57:31.410Z,98281.32
2018-08-03T13:00:00.184Z,98276.09
2018-08-03T13:02:28.841Z,98287.67
2018-08-03T13:04:57.450Z,98270.62
2018-08-03T13:07:26.223Z,98265.55
2018-08-03T13:09:55.786Z,98273.11
2018-08-03T13:12:24.440Z,98266.25
2018-08-03T13:14:53.108Z,98268.84
2018-08-03T13:17:21.818Z,98266.48
2018-08-03T13:19:50.430Z,98257.81
2018-08-03T13:22:22.660Z,98252.53
2018-08-03T13:24:51.856Z,98250.69
2018-08-03T13:27:21.187Z,98251.31
2018-08-03T13:29:49.935Z,98238.77
2018-08-03T13:32:19.150Z,98247.71
2018-08-03T13:34:48.802Z,98250.06
2018-08-03T13:37:17.730Z,98241.36
2018-08-03T13:39:46.352Z,98238.88
2018-08-03T13:42:15.046Z,98232.78
2018-08-03T13:44:43.802Z,98230.86
2018-08-03T13:47:12.521Z,98228.78
2018-08-03T13:49:41.195Z,98228.97
2018-08-03T13:52:09.997Z,98226.50
2018-08-03T13:54:38.636Z,98221.08
2018-08-03T13:57:07.440Z,98217.00
2018-08-03T13:59:36.730Z,98213.47
2018-08-03T14:02:27.375Z,98211.91
2018-08-03T14:04:56.600Z,98205.88
2018-08-03T14:07:27.130Z,98203.08
2018-08-03T14:09:56.590Z,98206.45
2018-08-03T14:12:25.246Z,98202.03
2018-08-03T14:14:54.139Z,98206.44
2018-08-03T14:17:22.977Z,98196.53
2018-08-03T14:19:51.639Z,98189.99
2018-08-03T14:22:20.452Z,98191.31
2018-08-03T14:24:50.094Z,98194.95
2018-08-03T14:27:18.912Z,98188.84
2018-08-03T14:29:47.644Z,98182.67
2018-08-03T14:32:16.380Z,98180.75
2018-08-03T14:34:45.164Z,98178.67
2018-08-03T14:37:13.885Z,98182.79
2018-08-03T14:39:43.336Z,98178.97
2018-08-03T14:42:12.066Z,98176.57
2018-08-03T14:44:41.488Z,98174.53
2018-08-03T14:47:10.347Z,98180.53
2018-08-03T14:49:39.016Z,98174.59
2018-08-03T14:52:07.704Z,98173.29
2018-08-03T14:54:36.446Z,98169.83
2018-08-03T14:57:05.702Z,98175.08
2018-08-03T14:59:35.279Z,98164.45
2018-08-03T15:02:04.199Z,98166.83
2018-08-03T15:04:33.634Z,98161.50
2018-08-03T15:07:02.319Z,98157.15
2018-08-03T15:09:30.962Z,98159.50
2018-08-03T15:11:59.640Z,98154.15
2018-08-03T15:14:28.406Z,98147.40
2018-08-03T15:16:57.110Z,98146.29
2018-08-03T15:19:25.799Z,98144.55
2018-08-03T15:21:54.552Z,98133.28
2018-08-03T15:24:23.195Z,98141.74
2018-08-03T15:26:51.922Z,98133.60
2018-08-03T15:29:20.664Z,98129.84
2018-08-03T15:31:49.367Z,98130.77
2018-08-03T15:34:18.087Z,98127.00
2018-08-03T15:36:46.898Z,98123.53
2018-08-03T15:39:15.578Z,98131.60
2018-08-03T15:41:44.380Z,98127.52
2018-08-03T15:44:13.126Z,98126.89
2018-08-03T15:46:41.945Z,98129.62
2018-08-03T15:49:10.616Z,98128.97
2018-08-03T15:51:39.982Z,98130.53
2018-08-03T15:54:08.747Z,98120.34
2018-08-03T15:56:37.429Z,98115.11
2018-08-03T15:59:06.199Z,98117.77
2018-08-03T16:01:35.637Z,98112.38
2018-08-03T16:04:04.326Z,98114.42
2018-08-03T16:06:33.147Z,98110.05
2018-08-03T16:09:02.563Z,98108.63
2018-08-03T16:11:31.237Z,98106.67
2018-08-03T16:13:59.986Z,98097.38
2018-08-03T16:16:28.941Z,98095.77
2018-08-03T16:18:57.598Z,98095.54
2018-08-03T16:21:26.515Z,98095.89
2018-08-03T16:23:55.220Z,98095.41
2018-08-03T16:26:24.125Z,98095.53
2018-08-03T16:28:52.922Z,98085.26
2018-08-03T16:31:21.626Z,98093.05
2018-08-03T16:33:50.330Z,98088.36
2018-08-03T16:36:18.996Z,98092.21
2018-08-03T16:38:47.965Z,98089.91
2018-08-03T16:41:16.663Z,98083.31
2018-08-03T16:43:45.456Z,98088.67
2018-08-03T16:46:14.097Z,98083.77
2018-08-03T16:48:42.858Z,98085.20
2018-08-03T16:51:11.707Z,98086.13
2018-08-03T16:53:40.545Z,98086.36
2018-08-03T16:56:09.336Z,98087.39
2018-08-03T16:58:38.135Z,98084.20
2018-08-03T17:01:06.924Z,98085.48
2018-08-03T17:03:35.618Z,98086.04
2018-08-03T17:06:04.883Z,98090.99
2018-08-03T17:08:33.617Z,98079.56
2018-08-03T17:11:02.285Z,98076.86
2018-08-03T17:13:31.053Z,98075.08
2018-08-03T17:15:59.776Z,98071.73
2018-08-03T17:18:28.551Z,98072.41
2018-08-03T17:20:57.856Z,98070.87
2018-08-03T17:23:26.486Z,98075.20
2018-08-03T17:25:55.683Z,98069.80
2018-08-03T17:28:24.827Z,98080.16
2018-08-03T17:30:54.105Z,98080.22
2018-08-03T17:33:23.462Z,98085.17
2018-08-03T17:35:52.126Z,98081.55
2018-08-03T17:38:21.432Z,98082.97
2018-08-03T17:40:50.076Z,98074.92
2018-08-03T17:43:18.800Z,98078.11
2018-08-03T17:45:47.526Z,98072.63
2018-08-03T17:48:16.277Z,98075.14
2018-08-03T17:50:46.406Z,98071.23
2018-08-03T17:53:15.036Z,98071.77
2018-08-03T17:55:43.763Z,98077.47
2018-08-03T17:58:12.520Z,98081.34
2018-08-03T18:00:41.983Z,98076.00
2018-08-03T18:03:10.663Z,98081.78
2018-08-03T18:05:39.288Z,98074.02
2018-08-03T18:08:08.081Z,98080.34
2018-08-03T18:10:36.773Z,98079.08
2018-08-03T18:13:05.923Z,98084.59
2018-08-03T18:15:34.768Z,98084.23
2018-08-03T18:18:03.438Z,98089.92
2018-08-03T18:20:32.746Z,98085.48
2018-08-03T18:23:01.522Z,98085.58
2018-08-03T18:25:30.177Z,98087.59
2018-08-03T18:27:58.895Z,98085.92
2018-08-03T18:30:27.567Z,98091.59
2018-08-03T18:32:56.338Z,98095.70
2018-08-03T18:35:25.081Z,98100.72
2018-08-03T18:37:53.836Z,98094.89
2018-08-03T18:40:22.594Z,98102.23
2018-08-03T18:42:52.014Z,98103.25
2018-08-03T18:45:20.770Z,98103.45
2018-08-03T18:47:49.414Z,98103.10
2018-08-03T18:50:18.066Z,98108.28
2018-08-03T18:52:46.786Z,98109.23
2018-08-03T18:55:15.477Z,98109.09
2018-08-03T18:57:44.136Z,98116.31
2018-08-03T19:00:12.944Z,98118.47
2018-08-03T19:02:41.545Z,98118.20
2018-08-03T19:05:10.381Z,98125.69
2018-08-03T19:07:39.074Z,98121.58
2018-08-03T19:10:07.867Z,98132.41
2018-08-03T19:12:36.638Z,98130.55
2018-08-03T19:15:06.013Z,98132.06
2018-08-03T19:17:34.937Z,98132.73
2018-08-03T19:20:04.289Z,98136.94
2018-08-03T19:22:33.349Z,98142.88
2018-08-03T19:25:02.881Z,98145.69
2018-08-03T19:27:31.652Z,98145.27
2018-08-03T19:30:00.391Z,98150.13
2018-08-03T19:32:29.294Z,98147.92
2018-08-03T19:34:58.053Z,98150.09
2018-08-03T19:37:26.861Z,98147.83
2018-08-03T19:39:55.757Z,98152.16
2018-08-03T19:42:24.499Z,98156.73
2018-08-03T19:44:53.922Z,98160.66
2018-08-03T19:47:22.661Z,98159.27
2018-08-03T19:49:51.529Z,98166.42
2018-08-03T19:52:20.247Z,98167.45
2018-08-03T19:54:49.548Z,98163.28
2018-08-03T19:57:18.261Z,98166.86
2018-08-03T19:59:46.910Z,98168.83
2018-08-03T20:02:17.406Z,98165.27
2018-08-03T20:04:46.257Z,98170.77
2018-08-03T20:07:14.991Z,98168.92
2018-08-03T20:09:43.738Z,98172.30
2018-08-03T20:12:13.120Z,98168.36
2018-08-03T20:14:42.080Z,98160.22
2018-08-03T20:17:11.692Z,98164.59
2018-08-03T20:19:40.372Z,98174.06
2018-08-03T20:22:17.350Z,98168.12
2018-08-03T20:24:47.188Z,98163.52
2018-08-03T20:27:16.607Z,98165.48
2018-08-03T20:29:45.662Z,98167.09
2018-08-03T20:32:14.603Z,98168.38
2018-08-03T20:34:43.919Z,98174.70
2018-08-03T20:37:12.647Z,98172.74
2018-08-03T20:39:42.189Z,98171.06
2018-08-03T20:42:10.999Z,98176.61
2018-08-03T20:44:39.815Z,98186.06
2018-08-03T20:47:08.774Z,98180.95
2018-08-03T20:49:38.295Z,98176.98
2018-08-03T20:52:07.169Z,98174.22
2018-08-03T20:54:35.716Z,98179.52
2018-08-03T20:57:04.429Z,98175.74
2018-08-03T20:59:33.138Z,98173.77
2018-08-03T21:02:02.511Z,98178.03
2018-08-03T21:04:32.230Z,98178.59
2018-08-03T21:07:00.912Z,98182.05
2018-08-03T21:09:29.609Z,98183.89
2018-08-03T21:11:59.103Z,98176.84
2018-08-03T21:14:27.792Z,98181.58
2018-08-03T21:16:56.494Z,98175.05
2018-08-03T21:19:25.849Z,98175.41
2018-08-03T21:21:54.509Z,98176.60
2018-08-03T21:24:23.276Z,98171.27
2018-08-03T21:26:52.092Z,98177.19
2018-08-03T21:29:20.812Z,98178.98
2018-08-03T21:31:51.177Z,98174.87
2018-08-03T21:34:20.059Z,98181.02
2018-08-03T21:36:48.694Z,98178.63
2018-08-03T21:39:17.483Z,98178.84
2018-08-03T21:41:46.212Z,98179.80
2018-08-03T21:44:15.277Z,98174.47
2018-08-03T21:46:44.068Z,98176.04
2018-08-03T21:49:12.693Z,98177.26
2018-08-03T21:51:42.085Z,98181.45
2018-08-03T21:54:10.788Z,98180.27
2018-08-03T21:56:39.438Z,98179.46
2018-08-03T21:59:08.152Z,98173.45
2018-08-03T22:01:36.809Z,98169.70
2018-08-03T22:04:05.450Z,98170.69
2018-08-03T22:06:34.226Z,98180.28
2018-08-03T22:09:03.158Z,98176.52
2018-08-03T22:11:31.832Z,98176.48
2018-08-03T22:14:00.549Z,98174.34
2018-08-03T22:16:29.249Z,98176.97
2018-08-03T22:18:58.702Z,98177.88
2018-08-03T22:21:27.349Z,98184.72
2018-08-03T22:23:55.965Z,98178.52
2018-08-03T22:26:25.358Z,98179.77
2018-08-03T22:28:54.980Z,98183.03
2018-08-03T22:31:24.479Z,98186.20
2018-08-03T22:33:53.836Z,98192.94
2018-08-03T22:36:23.297Z,98189.34
2018-08-03T22:38:52.153Z,98189.55
2018-08-03T22:41:20.795Z,98189.41
2018-08-03T22:43:49.702Z,98186.22
2018-08-03T22:46:18.289Z,98180.83
2018-08-03T22:48:47.097Z,98186.91
2018-08-03T22:51:15.777Z,98182.24
2018-08-03T22:53:44.625Z,98182.51
2018-08-03T22:56:13.259Z,98181.24
2018-08-03T22:58:41.993Z,98181.66
2018-08-03T23:01:10.882Z,98178.65
2018-08-03T23:03:39.530Z,98178.92
2018-08-03T23:06:09.217Z,98180.14
2018-08-03T23:08:37.997Z,98181.90
2018-08-03T23:11:07.447Z,98173.63
2018-08-03T23:13:36.137Z,98170.76
2018-08-03T23:16:04.913Z,98177.00
2018-08-03T23:18:34.142Z,98175.85
2018-08-03T23:21:02.867Z,98181.05
2018-08-03T23:23:31.509Z,98185.95
2018-08-03T23:26:00.189Z,98185.67
2018-08-03T23:28:28.798Z,98180.88
2018-08-03T23:30:57.466Z,98179.59
2018-08-03T23:33:26.151Z,98177.69
2018-08-03T23:35:54.983Z,98170.30
2018-08-03T23:38:23.653Z,98170.30
2018-08-03T23:40:52.402Z,98168.39
2018-08-03T23:43:21.165Z,98163.84
2018-08-03T23:45:50.613Z,98169.03
2018-08-03T23:48:19.228Z,98167.88
2018-08-03T23:50:47.876Z,98163.92
2018-08-03T23:53:16.483Z,98164.83
2018-08-03T23:55:45.257Z,98161.82
2018-08-03T23:58:13.902Z,98164.34
